createdAt,value
2019-01-11T00:01:42.263Z,78.46
2019-01-11T00:04:46.980Z,78.87
2019-01-11T00:07:51.812Z,79.64
2019-01-11T00:10:56.552Z,80.57
2019-01-11T00:14:01.272Z,81.17
2019-01-11T00:17:06.108Z,81.41
2019-01-11T00:20:12.668Z,81.45
2019-01-11T00:23:17.117Z,81.40
2019-01-11T00:26:21.578Z,81.52
2019-01-11T00:29:26.366Z,81.64
2019-01-11T00:32:31.088Z,81.35
2019-01-11T00:35:35.525Z,81.30
2019-01-11T00:38:40.241Z,81.56
2019-01-11T00:41:44.687Z,81.49
2019-01-11T00:44:49.139Z,81.30
2019-01-11T00:47:53.582Z,81.63
2019-01-11T00:50:58.340Z,81.52
2019-01-11T00:54:02.796Z,81.49
2019-01-11T00:57:07.241Z,81.52
2019-01-11T01:00:21.689Z,81.40
2019-01-11T01:03:26.126Z,81.69
2019-01-11T01:06:30.907Z,81.85
2019-01-11T01:09:35.638Z,81.75
2019-01-11T01:12:40.550Z,81.46
2019-01-11T01:15:44.986Z,81.40
2019-01-11T01:18:49.730Z,81.73
2019-01-11T01:21:54.165Z,81.67
2019-01-11T01:24:58.615Z,80.24
2019-01-11T01:28:03.712Z,79.78
2019-01-11T01:31:08.229Z,80.18
2019-01-11T01:34:12.974Z,80.82
2019-01-11T01:37:17.414Z,79.85
2019-01-11T01:40:21.862Z,80.04
2019-01-11T01:43:26.655Z,80.44
2019-01-11T01:46:31.384Z,80.02
2019-01-11T01:49:35.830Z,79.61
2019-01-11T01:52:40.471Z,80.01
2019-01-11T01:55:44.917Z,80.30
2019-01-11T01:58:49.362Z,80.72
2019-01-11T02:01:54.123Z,81.06
2019-01-11T02:04:58.846Z,81.08
2019-01-11T02:08:03.699Z,80.89
2019-01-11T02:11:08.414Z,80.29
2019-01-11T02:14:13.137Z,80.46
2019-01-11T02:17:18.793Z,80.46
2019-01-11T02:20:23.251Z,80.46
2019-01-11T02:23:27.699Z,80.68
2019-01-11T02:26:32.161Z,80.88
2019-01-11T02:29:36.898Z,80.75
2019-01-11T02:32:41.344Z,80.41
2019-01-11T02:35:45.796Z,78.52
2019-01-11T02:38:50.238Z,78.06
2019-01-11T02:41:54.684Z,78.81
2019-01-11T02:44:59.141Z,78.58
2019-01-11T02:48:03.964Z,79.09
2019-01-11T02:51:08.414Z,78.62
2019-01-11T02:54:12.873Z,78.61
2019-01-11T02:57:17.384Z,78.92
2019-01-11T03:00:22.312Z,79.69
2019-01-11T03:03:26.751Z,80.03
2019-01-11T03:06:31.197Z,80.44
2019-01-11T03:09:35.644Z,80.87
2019-01-11T03:12:40.367Z,81.47
2019-01-11T03:15:44.817Z,81.70
2019-01-11T03:18:49.648Z,81.56
2019-01-11T03:21:54.084Z,81.70
2019-01-11T03:24:58.541Z,81.75
2019-01-11T03:28:02.980Z,81.99
2019-01-11T03:31:09.073Z,81.86
2019-01-11T03:34:13.528Z,81.58
2019-01-11T03:37:17.993Z,81.49
2019-01-11T03:40:23.341Z,81.46
2019-01-11T03:43:28.081Z,80.86
2019-01-11T03:46:32.808Z,80.41
2019-01-11T03:49:37.267Z,80.03
2019-01-11T03:52:41.714Z,80.51
2019-01-11T03:55:46.156Z,80.82
2019-01-11T03:58:50.598Z,80.85
2019-01-11T04:01:55.059Z,81.35
2019-01-11T04:04:59.509Z,81.68
2019-01-11T04:08:03.958Z,81.18
2019-01-11T04:11:08.715Z,81.73
2019-01-11T04:14:13.165Z,81.12
2019-01-11T04:17:17.612Z,80.96
2019-01-11T04:20:22.063Z,80.86
2019-01-11T04:23:26.498Z,81.09
2019-01-11T04:26:30.946Z,81.88
2019-01-11T04:29:35.658Z,81.99
2019-01-11T04:32:40.100Z,81.61
2019-01-11T04:35:44.547Z,82.01
2019-01-11T04:38:48.990Z,82.30
2019-01-11T04:41:53.769Z,82.21
2019-01-11T04:44:58.494Z,82.21
2019-01-11T04:48:02.941Z,82.11
2019-01-11T04:51:07.379Z,82.06
2019-01-11T04:54:11.812Z,82.29
2019-01-11T04:57:16.602Z,82.12
2019-01-11T05:00:22.183Z,81.71
2019-01-11T05:03:26.620Z,81.71
2019-01-11T05:06:31.405Z,81.62
2019-01-11T05:09:35.844Z,81.51
2019-01-11T05:12:40.291Z,81.50
2019-01-11T05:15:44.739Z,81.63
2019-01-11T05:18:49.183Z,81.47
2019-01-11T05:21:53.936Z,81.31
2019-01-11T05:24:58.372Z,80.87
2019-01-11T05:28:03.133Z,80.95
2019-01-11T05:31:07.597Z,80.65
2019-01-11T05:34:12.038Z,80.68
2019-01-11T05:37:16.488Z,80.83
2019-01-11T05:40:20.927Z,80.83
2019-01-11T05:43:25.720Z,80.87
2019-01-11T05:46:30.169Z,80.50
2019-01-11T05:49:34.616Z,80.21
2019-01-11T05:52:39.073Z,80.72
2019-01-11T05:55:45.157Z,80.82
2019-01-11T05:58:51.521Z,80.65
2019-01-11T06:01:55.972Z,80.61
2019-01-11T06:05:01.189Z,80.93
2019-01-11T06:08:07.577Z,81.51
2019-01-11T06:11:12.020Z,81.27
2019-01-11T06:14:16.458Z,80.62
2019-01-11T06:17:21.236Z,80.67
2019-01-11T06:20:30.245Z,80.81
2019-01-11T06:23:32.137Z,80.44
2019-01-11T06:26:36.585Z,80.38
2019-01-11T06:29:41.798Z,80.22
2019-01-11T06:32:46.534Z,80.12
2019-01-11T06:35:51.065Z,80.02
2019-01-11T06:38:55.496Z,80.07
2019-01-11T06:42:01.596Z,79.60
2019-01-11T06:45:09.845Z,79.97
2019-01-11T06:48:15.918Z,79.72
2019-01-11T06:51:20.651Z,79.47
2019-01-11T06:54:25.155Z,79.66
2019-01-11T06:57:29.605Z,79.74
2019-01-11T07:00:34.034Z,79.40
2019-01-11T07:03:38.482Z,79.62
2019-01-11T07:06:43.194Z,79.59
2019-01-11T07:09:48.805Z,79.70
2019-01-11T07:12:53.263Z,78.55
2019-01-11T07:15:57.695Z,77.95
2019-01-11T07:19:02.133Z,78.23
2019-01-11T07:22:06.645Z,77.78
2019-01-11T07:25:14.524Z,78.21
2019-01-11T07:28:18.970Z,76.79
2019-01-11T07:31:23.880Z,76.81
2019-01-11T07:34:28.397Z,76.96
2019-01-11T07:37:32.840Z,76.93
2019-01-11T07:40:37.262Z,77.04
2019-01-11T07:43:41.987Z,77.25
2019-01-11T07:46:46.420Z,76.96
2019-01-11T07:49:50.857Z,76.49
2019-01-11T07:52:55.291Z,76.16
2019-01-11T07:55:59.736Z,76.13
2019-01-11T07:59:04.638Z,75.76
2019-01-11T08:02:09.069Z,76.04
2019-01-11T08:05:13.511Z,76.29
2019-01-11T08:08:17.951Z,76.49
2019-01-11T08:11:22.724Z,76.47
2019-01-11T08:14:27.556Z,76.43
2019-01-11T08:17:31.991Z,76.23
2019-01-11T08:20:36.431Z,75.88
2019-01-11T08:23:40.864Z,76.05
2019-01-11T08:26:45.554Z,76.76
2019-01-11T08:29:50.287Z,75.96
2019-01-11T08:32:55.013Z,75.60
2019-01-11T08:35:59.451Z,75.82
2019-01-11T08:39:06.554Z,75.82
2019-01-11T08:42:11.256Z,76.43
2019-01-11T08:45:16.131Z,76.09
2019-01-11T08:48:20.830Z,76.48
2019-01-11T08:51:25.267Z,77.00
2019-01-11T08:54:29.704Z,77.50
2019-01-11T08:57:34.135Z,76.93
2019-01-11T09:00:38.696Z,76.83
2019-01-11T09:03:43.269Z,77.38
2019-01-11T09:06:47.982Z,75.99
2019-01-11T09:09:52.418Z,75.20
2019-01-11T09:12:57.136Z,74.32
2019-01-11T09:16:01.569Z,73.95
2019-01-11T09:19:06.178Z,74.02
2019-01-11T09:22:10.614Z,73.40
2019-01-11T09:25:15.049Z,73.46
2019-01-11T09:28:19.475Z,73.11
2019-01-11T09:31:24.191Z,72.89
2019-01-11T09:34:28.642Z,73.39
2019-01-11T09:37:33.339Z,73.37
2019-01-11T09:40:37.776Z,73.07
2019-01-11T09:43:42.493Z,72.03
2019-01-11T09:46:47.232Z,72.60
2019-01-11T09:49:51.953Z,72.23
2019-01-11T09:52:56.685Z,72.35
2019-01-11T09:56:01.127Z,73.11
2019-01-11T09:59:05.626Z,72.17
2019-01-11T10:02:24.011Z,71.33
2019-01-11T10:05:28.559Z,72.45
2019-01-11T10:08:32.995Z,72.52
2019-01-11T10:11:37.773Z,73.07
2019-01-11T10:14:42.205Z,72.70
2019-01-11T10:17:48.281Z,73.45
2019-01-11T10:20:52.715Z,72.77
2019-01-11T10:23:57.145Z,72.21
2019-01-11T10:27:01.584Z,71.34
2019-01-11T10:30:22.316Z,72.34
2019-01-11T10:33:26.840Z,72.42
2019-01-11T10:36:31.273Z,72.34
2019-01-11T10:39:36.719Z,70.94
2019-01-11T10:42:41.261Z,72.24
2019-01-11T10:45:45.702Z,72.10
2019-01-11T10:48:50.405Z,72.30
2019-01-11T10:51:54.847Z,72.17
2019-01-11T10:54:59.273Z,72.23
2019-01-11T10:58:04.085Z,70.86
2019-01-11T11:01:08.526Z,70.76
2019-01-11T11:04:12.956Z,70.97
2019-01-11T11:07:17.391Z,72.02
2019-01-11T11:10:22.263Z,71.90
2019-01-11T11:13:26.704Z,72.34
2019-01-11T11:16:32.963Z,71.18
2019-01-11T11:19:37.625Z,70.64
2019-01-11T11:22:42.055Z,70.33
2019-01-11T11:25:46.767Z,70.40
2019-01-11T11:28:51.209Z,71.23
2019-01-11T11:31:55.926Z,70.97
2019-01-11T11:35:00.405Z,70.63
2019-01-11T11:38:05.283Z,70.59
2019-01-11T11:41:10.009Z,70.53
2019-01-11T11:44:14.440Z,70.55
2019-01-11T11:47:18.877Z,70.23
2019-01-11T11:50:23.705Z,69.83
2019-01-11T11:53:28.145Z,69.88
2019-01-11T11:56:32.848Z,69.85
2019-01-11T11:59:37.290Z,69.84
2019-01-11T12:02:42.002Z,69.71
2019-01-11T12:05:46.436Z,70.13
2019-01-11T12:08:51.156Z,71.02
2019-01-11T12:11:55.886Z,70.33
2019-01-11T12:15:00.319Z,69.54
2019-01-11T12:18:04.827Z,69.95
2019-01-11T12:21:09.256Z,69.79
2019-01-11T12:24:13.990Z,70.93
2019-01-11T12:27:18.428Z,71.09
2019-01-11T12:30:22.860Z,71.08
2019-01-11T12:33:27.302Z,71.67
2019-01-11T12:36:31.993Z,71.49
2019-01-11T12:39:36.728Z,71.58
2019-01-11T12:42:41.662Z,72.40
2019-01-11T12:45:46.100Z,72.13
2019-01-11T12:48:50.586Z,73.33
2019-01-11T12:51:55.017Z,73.47
2019-01-11T12:54:59.466Z,73.12
2019-01-11T12:58:04.180Z,73.72
2019-01-11T13:01:09.025Z,74.23
2019-01-11T13:04:13.460Z,75.39
2019-01-11T13:07:17.896Z,74.64
2019-01-11T13:10:22.472Z,75.42
2019-01-11T13:13:26.924Z,76.69
2019-01-11T13:16:31.654Z,76.54
2019-01-11T13:19:36.100Z,76.61
2019-01-11T13:22:40.672Z,77.15
2019-01-11T13:25:45.121Z,77.23
2019-01-11T13:28:49.555Z,77.69
2019-01-11T13:31:54.285Z,78.48
2019-01-11T13:34:58.728Z,77.82
2019-01-11T13:38:03.434Z,77.65
2019-01-11T13:41:07.881Z,78.10
2019-01-11T13:44:12.596Z,77.77
2019-01-11T13:47:17.095Z,77.90
2019-01-11T13:50:39.171Z,78.55
2019-01-11T13:53:43.598Z,77.90
2019-01-11T13:56:48.309Z,78.56
2019-01-11T13:59:52.763Z,78.83
2019-01-11T14:02:57.466Z,78.53
2019-01-11T14:06:01.903Z,79.01
2019-01-11T14:09:08.691Z,79.23
2019-01-11T14:12:13.120Z,79.37
2019-01-11T14:15:17.696Z,79.34
2019-01-11T14:18:22.128Z,79.38
2019-01-11T14:21:26.877Z,79.88
2019-01-11T14:24:31.609Z,79.77
2019-01-11T14:27:36.440Z,80.19
2019-01-11T14:30:41.171Z,80.16
2019-01-11T14:33:45.559Z,80.33
2019-01-11T14:36:49.993Z,80.75
2019-01-11T14:39:54.442Z,80.32
2019-01-11T14:42:59.035Z,79.96
2019-01-11T14:46:03.474Z,79.91
2019-01-11T14:49:07.904Z,80.19
2019-01-11T14:52:12.633Z,80.99
2019-01-11T14:55:17.404Z,79.66
2019-01-11T14:58:21.806Z,80.15
2019-01-11T15:01:26.521Z,81.91
2019-01-11T15:04:30.960Z,81.54
2019-01-11T15:07:35.490Z,82.34
2019-01-11T15:10:39.929Z,82.36
2019-01-11T15:13:44.373Z,82.14
2019-01-11T15:16:49.168Z,82.10
2019-01-11T15:19:53.881Z,81.61
2019-01-11T15:22:58.328Z,81.81
2019-01-11T15:26:03.043Z,81.69
2019-01-11T15:29:07.769Z,82.12
2019-01-11T15:32:12.515Z,82.16
2019-01-11T15:35:17.433Z,81.87
2019-01-11T15:38:21.853Z,82.14
2019-01-11T15:41:26.585Z,81.24
2019-01-11T15:44:31.014Z,81.13
2019-01-11T15:47:35.455Z,81.22
2019-01-11T15:50:52.640Z,81.41
2019-01-11T15:53:57.142Z,81.62
2019-01-11T15:57:01.573Z,82.75
2019-01-11T16:00:10.962Z,82.53
2019-01-11T16:03:15.678Z,82.29
2019-01-11T16:06:28.785Z,82.20
2019-01-11T16:09:56.386Z,82.67
2019-01-11T16:13:05.662Z,82.58
2019-01-11T16:16:14.712Z,83.27
2019-01-11T16:19:19.141Z,83.75
2019-01-11T16:22:23.579Z,83.40
2019-01-11T16:25:28.071Z,82.91
2019-01-11T16:28:32.949Z,83.30
2019-01-11T16:31:37.387Z,83.28
2019-01-11T16:34:41.822Z,82.62
2019-01-11T16:37:46.528Z,82.02
2019-01-11T16:40:50.957Z,81.84
2019-01-11T16:43:55.682Z,83.04
2019-01-11T16:47:02.527Z,82.66
2019-01-11T16:50:14.463Z,83.62
2019-01-11T16:53:18.892Z,82.10
2019-01-11T16:56:23.796Z,82.31
2019-01-11T16:59:28.238Z,82.77
2019-01-11T17:02:36.610Z,82.59
2019-01-11T17:05:39.127Z,82.05
2019-01-11T17:08:43.569Z,81.73
2019-01-11T17:11:47.984Z,82.29
2019-01-11T17:14:52.721Z,81.97
2019-01-11T17:17:57.152Z,82.37
2019-01-11T17:21:01.579Z,81.82
2019-01-11T17:24:06.386Z,82.39
2019-01-11T17:27:10.823Z,81.85
2019-01-11T17:30:17.197Z,82.21
2019-01-11T17:33:21.638Z,81.87
2019-01-11T17:36:26.340Z,82.90
2019-01-11T17:39:30.781Z,82.80
2019-01-11T17:42:35.213Z,82.17
2019-01-11T17:45:39.655Z,82.49
2019-01-11T17:48:44.094Z,82.10
2019-01-11T17:51:48.528Z,82.38
2019-01-11T17:54:52.966Z,82.05
2019-01-11T17:57:57.726Z,82.75
2019-01-11T18:01:02.172Z,82.12
2019-01-11T18:04:06.609Z,81.97
2019-01-11T18:07:11.040Z,82.03
2019-01-11T18:10:15.552Z,82.48
2019-01-11T18:13:20.278Z,83.19
2019-01-11T18:16:24.708Z,83.09
2019-01-11T18:19:29.401Z,82.99
2019-01-11T18:22:34.128Z,82.68
2019-01-11T18:25:38.568Z,82.41
2019-01-11T18:28:43.003Z,82.97
2019-01-11T18:31:47.430Z,82.55
2019-01-11T18:34:51.876Z,82.54
2019-01-11T18:37:56.319Z,82.98
2019-01-11T18:41:00.746Z,82.54
2019-01-11T18:44:05.448Z,82.44
2019-01-11T18:47:09.881Z,81.80
2019-01-11T18:50:21.108Z,81.63
2019-01-11T18:53:25.539Z,82.88
2019-01-11T18:56:30.269Z,84.21
2019-01-11T18:59:34.999Z,84.75
2019-01-11T19:02:39.487Z,85.07
2019-01-11T19:05:44.330Z,85.40
2019-01-11T19:08:48.704Z,85.59
2019-01-11T19:11:53.148Z,85.67
2019-01-11T19:14:57.650Z,85.87
2019-01-11T19:18:02.083Z,85.63
2019-01-11T19:21:06.688Z,85.65
2019-01-11T19:24:11.412Z,86.20
2019-01-11T19:27:15.850Z,86.12
2019-01-11T19:30:26.123Z,85.92
2019-01-11T19:33:30.548Z,85.86
2019-01-11T19:36:34.990Z,85.76
2019-01-11T19:39:39.428Z,85.56
2019-01-11T19:42:44.243Z,85.06
2019-01-11T19:45:49.027Z,84.94
2019-01-11T19:48:53.461Z,85.08
2019-01-11T19:51:57.907Z,84.96
2019-01-11T19:55:02.350Z,84.86
2019-01-11T19:58:07.133Z,85.22
2019-01-11T20:01:12.018Z,85.34
2019-01-11T20:04:16.402Z,85.52
2019-01-11T20:07:20.837Z,85.80
2019-01-11T20:10:29.574Z,86.03
2019-01-11T20:13:33.987Z,85.85
2019-01-11T20:16:38.565Z,85.07
2019-01-11T20:19:42.979Z,84.92
2019-01-11T20:22:47.486Z,85.14
2019-01-11T20:25:52.284Z,85.28
2019-01-11T20:28:57.013Z,85.27
2019-01-11T20:32:01.732Z,85.80
2019-01-11T20:35:07.999Z,86.13
2019-01-11T20:38:12.448Z,86.55
2019-01-11T20:41:16.963Z,86.93
2019-01-11T20:44:21.399Z,86.88
2019-01-11T20:47:26.027Z,86.58
2019-01-11T20:50:30.520Z,86.86
2019-01-11T20:53:41.370Z,86.73
2019-01-11T20:56:41.424Z,87.05
2019-01-11T20:59:45.928Z,87.34
2019-01-11T21:02:50.363Z,87.23
2019-01-11T21:05:54.800Z,86.75
2019-01-11T21:08:59.267Z,86.99
2019-01-11T21:12:03.700Z,86.71
2019-01-11T21:15:15.362Z,86.58
2019-01-11T21:18:20.078Z,86.72
2019-01-11T21:21:24.504Z,86.40
2019-01-11T21:24:29.217Z,86.46
2019-01-11T21:27:33.948Z,85.96
2019-01-11T21:30:38.385Z,86.12
2019-01-11T21:33:42.831Z,85.96
2019-01-11T21:36:47.278Z,86.17
2019-01-11T21:39:51.711Z,86.35
2019-01-11T21:43:12.163Z,86.37
2019-01-11T21:46:16.987Z,86.30
2019-01-11T21:49:21.719Z,86.07
2019-01-11T21:52:26.180Z,86.09
2019-01-11T21:55:30.865Z,86.10
2019-01-11T21:58:35.317Z,86.38
2019-01-11T22:01:39.760Z,86.85
2019-01-11T22:04:44.210Z,86.99
2019-01-11T22:07:48.655Z,86.96
2019-01-11T22:10:53.096Z,87.19
2019-01-11T22:13:57.926Z,87.59
2019-01-11T22:17:02.369Z,88.04
2019-01-11T22:20:12.009Z,87.96
2019-01-11T22:23:23.858Z,87.35
2019-01-11T22:26:22.725Z,87.73
2019-01-11T22:29:27.303Z,87.40
2019-01-11T22:32:31.845Z,87.58
2019-01-11T22:35:36.560Z,87.41
2019-01-11T22:38:41.303Z,87.04
2019-01-11T22:41:45.737Z,86.94
2019-01-11T22:44:50.446Z,86.92
2019-01-11T22:47:54.901Z,86.70
2019-01-11T22:50:59.337Z,86.28
2019-01-11T22:54:10.214Z,86.09
2019-01-11T22:57:10.205Z,86.13
2019-01-11T23:00:27.196Z,86.02
2019-01-11T23:03:39.979Z,86.17
2019-01-11T23:06:57.972Z,86.18
2019-01-11T23:10:03.315Z,86.35
2019-01-11T23:13:07.753Z,86.65
2019-01-11T23:16:17.129Z,86.37
2019-01-11T23:19:21.570Z,86.37
2019-01-11T23:22:26.005Z,86.35
2019-01-11T23:25:30.916Z,86.17
2019-01-11T23:28:35.360Z,86.47
2019-01-11T23:31:39.801Z,86.60
2019-01-11T23:34:44.293Z,86.57
2019-01-11T23:37:49.076Z,86.54
2019-01-11T23:40:53.526Z,86.62
2019-01-11T23:43:57.963Z,86.95
2019-01-11T23:47:02.397Z,87.34
2019-01-11T23:50:11.552Z,87.23
2019-01-11T23:53:15.981Z,87.21
2019-01-11T23:56:20.409Z,87.28
2019-01-11T23:59:24.855Z,87.41
